createdAt,value
2023-04-11T00:03:12.778Z,10.81
2023-04-11T00:07:14.452Z,10.77
2023-04-11T00:11:16.080Z,10.75
2023-04-11T00:15:20.013Z,10.76
2023-04-11T00:19:25.435Z,10.80
2023-04-11T00:23:26.852Z,10.75
2023-04-11T00:27:28.922Z,10.66
2023-04-11T00:31:30.496Z,10.65
2023-04-11T00:35:34.657Z,10.69
2023-04-11T00:39:38.249Z,10.58
2023-04-11T00:43:39.712Z,10.52
2023-04-11T00:47:41.905Z,10.50
2023-04-11T00:51:43.551Z,10.51
2023-04-11T00:55:45.615Z,10.47
2023-04-11T00:59:51.402Z,10.40
2023-04-11T01:03:53.762Z,10.39
2023-04-11T01:07:56.142Z,10.36
2023-04-11T01:11:58.932Z,10.29
2023-04-11T01:16:00.836Z,10.29
2023-04-11T01:20:02.420Z,10.30
2023-04-11T01:24:04.270Z,10.34
2023-04-11T01:28:08.706Z,10.36
2023-04-11T01:32:10.267Z,10.40
2023-04-11T01:36:12.688Z,10.30
2023-04-11T01:40:18.608Z,10.25
2023-04-11T01:44:20.898Z,10.14
2023-04-11T01:48:22.621Z,10.22
2023-04-11T01:52:24.106Z,10.13
2023-04-11T01:56:25.585Z,10.07
2023-04-11T02:00:29.853Z,10.13
2023-04-11T02:04:31.258Z,9.99
2023-04-11T02:08:32.768Z,10.03
2023-04-11T02:12:34.225Z,10.09
2023-04-11T02:16:50.645Z,9.86
2023-04-11T02:20:52.689Z,9.99
2023-04-11T02:24:54.152Z,10.04
2023-04-11T02:28:55.971Z,9.94
2023-04-11T02:32:57.634Z,9.93
2023-04-11T02:36:59.084Z,9.97
2023-04-11T02:41:00.585Z,9.96
2023-04-11T02:45:02.494Z,9.84
2023-04-11T02:49:04.717Z,9.82
2023-04-11T02:53:07.139Z,9.88
2023-04-11T02:57:08.560Z,9.78
2023-04-11T03:01:11.876Z,9.75
2023-04-11T03:05:13.369Z,9.82
2023-04-11T03:09:15.143Z,9.82
2023-04-11T03:13:16.606Z,9.73
2023-04-11T03:17:18.313Z,9.78
2023-04-11T03:21:19.855Z,9.55
2023-04-11T03:25:21.459Z,9.69
2023-04-11T03:29:22.892Z,9.55
2023-04-11T03:33:24.396Z,9.60
2023-04-11T03:37:25.960Z,9.56
2023-04-11T03:41:27.939Z,9.48
2023-04-11T03:45:29.329Z,9.56
2023-04-11T03:49:30.782Z,9.51
2023-04-11T03:53:32.208Z,9.35
2023-04-11T03:57:33.597Z,9.52
2023-04-11T04:01:37.901Z,9.67
2023-04-11T04:05:42.377Z,9.50
2023-04-11T04:09:43.859Z,9.24
2023-04-11T04:13:45.293Z,9.24
2023-04-11T04:17:46.725Z,9.09
2023-04-11T04:21:48.249Z,9.10
2023-04-11T04:25:50.995Z,9.09
2023-04-11T04:30:01.588Z,8.71
2023-04-11T04:34:10.287Z,8.57
2023-04-11T04:38:17.559Z,8.38
2023-04-11T04:42:26.296Z,8.00
2023-04-11T04:46:31.443Z,7.95
2023-04-11T04:50:32.882Z,7.97
2023-04-11T04:54:34.541Z,7.89
2023-04-11T04:58:36.008Z,7.90
2023-04-11T05:02:38.026Z,7.82
2023-04-11T05:06:39.541Z,7.88
2023-04-11T05:10:41.296Z,7.81
2023-04-11T05:14:42.965Z,7.65
2023-04-11T05:18:45.275Z,7.69
2023-04-11T05:22:48.772Z,7.74
2023-04-11T05:26:50.319Z,7.72
2023-04-11T05:30:51.815Z,7.84
2023-04-11T05:34:58.423Z,7.85
2023-04-11T05:39:00.983Z,7.71
2023-04-11T05:43:03.150Z,7.76
2023-04-11T05:47:04.616Z,7.81
2023-04-11T05:51:07.037Z,7.51
2023-04-11T05:55:09.892Z,7.64
2023-04-11T05:59:11.331Z,7.63
2023-04-11T06:03:13.179Z,7.54
2023-04-11T06:07:14.923Z,7.64
2023-04-11T06:11:16.444Z,7.70
2023-04-11T06:15:18.069Z,7.62
2023-04-11T06:19:19.508Z,7.87
2023-04-11T06:23:21.270Z,7.99
2023-04-11T06:27:22.856Z,7.93
2023-04-11T06:31:24.330Z,7.92
2023-04-11T06:35:25.758Z,7.89
2023-04-11T06:39:27.171Z,7.79
2023-04-11T06:43:28.635Z,7.84
2023-04-11T06:47:30.199Z,7.89
2023-04-11T06:51:31.790Z,8.08
2023-04-11T06:55:33.282Z,8.16
2023-04-11T06:59:34.896Z,8.00
2023-04-11T07:03:36.969Z,7.80
2023-04-11T07:07:38.639Z,8.14
2023-04-11T07:11:40.607Z,8.13
2023-04-11T07:15:42.070Z,8.42
2023-04-11T07:19:43.515Z,8.45
2023-04-11T07:23:45.282Z,8.16
2023-04-11T07:27:46.699Z,8.36
2023-04-11T07:31:48.281Z,8.29
2023-04-11T07:35:50.066Z,8.32
2023-04-11T07:39:52.019Z,8.68
2023-04-11T07:43:53.734Z,8.54
2023-04-11T07:47:55.591Z,8.65
2023-04-11T07:51:57.117Z,8.64
2023-04-11T07:55:58.588Z,8.49
2023-04-11T08:00:00.175Z,8.56
2023-04-11T08:04:02.152Z,8.55
2023-04-11T08:08:04.813Z,8.71
2023-04-11T08:12:06.461Z,8.90
2023-04-11T08:16:11.045Z,8.95
2023-04-11T08:20:13.820Z,9.14
2023-04-11T08:24:15.298Z,8.96
2023-04-11T08:28:16.913Z,8.58
2023-04-11T08:32:18.836Z,8.45
2023-04-11T08:36:20.448Z,8.40
2023-04-11T08:40:21.975Z,8.36
2023-04-11T08:44:23.402Z,8.33
2023-04-11T08:48:26.390Z,8.20
2023-04-11T08:52:28.826Z,8.20
2023-04-11T08:56:30.426Z,8.03
2023-04-11T09:00:32.517Z,8.34
2023-04-11T09:04:41.269Z,8.45
2023-04-11T09:08:42.742Z,8.27
2023-04-11T09:12:44.938Z,8.78
2023-04-11T09:17:00.398Z,8.82
2023-04-11T09:21:04.659Z,8.74
2023-04-11T09:25:06.495Z,9.03
2023-04-11T09:29:08.034Z,9.18
2023-04-11T09:33:28.331Z,9.79
2023-04-11T09:37:41.295Z,10.44
2023-04-11T09:41:42.853Z,9.88
2023-04-11T09:45:54.143Z,9.76
2023-04-11T09:49:56.487Z,10.01
2023-04-11T09:54:01.810Z,9.69
2023-04-11T09:58:05.638Z,9.60
2023-04-11T10:02:08.390Z,9.71
2023-04-11T10:06:16.389Z,9.80
2023-04-11T10:10:23.287Z,10.51
2023-04-11T10:14:45.221Z,10.45
2023-04-11T10:18:56.069Z,11.49
2023-04-11T10:22:59.056Z,11.09
2023-04-11T10:27:03.744Z,11.83
2023-04-11T10:31:10.125Z,11.87
2023-04-11T10:35:17.878Z,12.73
2023-04-11T10:40:09.089Z,12.77
2023-04-11T10:44:21.201Z,11.23
2023-04-11T10:48:22.850Z,10.54
2023-04-11T10:52:24.543Z,10.98
2023-04-11T10:56:50.489Z,10.72
2023-04-11T11:01:01.060Z,10.20
2023-04-11T11:05:14.780Z,10.12
2023-04-11T11:09:23.577Z,10.19
2023-04-11T11:13:25.298Z,11.04
2023-04-11T11:17:27.146Z,11.27
2023-04-11T11:21:34.653Z,11.52
2023-04-11T11:25:36.624Z,11.50
2023-04-11T11:29:38.275Z,11.37
2023-04-11T11:33:43.496Z,11.72
2023-04-11T11:37:45.159Z,11.66
2023-04-11T11:41:46.715Z,11.97
2023-04-11T11:46:08.721Z,11.40
2023-04-11T11:50:11.940Z,11.40
2023-04-11T11:54:13.618Z,10.71
2023-04-11T11:58:15.381Z,11.56
2023-04-11T12:02:17.015Z,11.35
2023-04-11T12:06:18.591Z,12.23
2023-04-11T12:10:20.168Z,12.30
2023-04-11T12:14:25.070Z,11.41
2023-04-11T12:18:28.464Z,11.55
2023-04-11T12:22:29.979Z,12.02
2023-04-11T12:26:31.797Z,12.50
2023-04-11T12:30:33.405Z,11.47
2023-04-11T12:34:34.851Z,13.00
2023-04-11T12:38:36.588Z,12.53
2023-04-11T12:42:55.155Z,13.30
2023-04-11T12:46:58.037Z,13.34
2023-04-11T12:50:59.672Z,13.52
2023-04-11T12:55:01.371Z,13.48
2023-04-11T12:59:02.853Z,13.93
2023-04-11T13:03:04.666Z,13.30
2023-04-11T13:07:06.348Z,11.63
2023-04-11T13:11:07.792Z,10.09
2023-04-11T13:15:10.887Z,9.38
2023-04-11T13:19:12.392Z,9.28
2023-04-11T13:23:14.992Z,8.76
2023-04-11T13:27:18.611Z,8.13
2023-04-11T13:31:26.315Z,7.70
2023-04-11T13:35:27.927Z,7.46
2023-04-11T13:39:29.347Z,7.45
2023-04-11T13:43:31.123Z,7.25
2023-04-11T13:47:34.866Z,7.06
2023-04-11T13:51:38.371Z,6.95
2023-04-11T13:55:39.915Z,7.03
2023-04-11T13:59:41.359Z,7.17
2023-04-11T14:03:43.150Z,7.22
2023-04-11T14:07:44.754Z,6.70
2023-04-11T14:11:46.240Z,6.60
2023-04-11T14:15:52.060Z,6.52
2023-04-11T14:20:05.044Z,6.61
2023-04-11T14:24:06.922Z,6.74
2023-04-11T14:28:08.654Z,6.85
2023-04-11T14:32:10.618Z,7.42
2023-04-11T14:36:12.104Z,7.88
2023-04-11T14:40:13.660Z,8.10
2023-04-11T14:44:16.522Z,8.19
2023-04-11T14:48:18.030Z,8.39
2023-04-11T14:52:19.489Z,8.06
2023-04-11T14:56:22.409Z,8.83
2023-04-11T15:00:24.545Z,9.13
2023-04-11T15:04:26.421Z,10.59
2023-04-11T15:08:28.026Z,10.87
2023-04-11T15:12:29.549Z,10.82
2023-04-11T15:16:31.418Z,10.93
2023-04-11T15:20:32.932Z,10.38
2023-04-11T15:24:34.443Z,10.27
2023-04-11T15:28:37.296Z,10.25
2023-04-11T15:32:43.616Z,9.55
2023-04-11T15:36:45.406Z,9.19
2023-04-11T15:40:51.388Z,10.33
2023-04-11T15:44:52.938Z,10.59
2023-04-11T15:48:54.388Z,10.18
2023-04-11T15:52:56.745Z,10.29
2023-04-11T15:56:59.213Z,10.66
2023-04-11T16:01:01.674Z,10.43
2023-04-11T16:05:04.433Z,11.17
2023-04-11T16:09:05.915Z,10.27
2023-04-11T16:13:07.429Z,10.15
2023-04-11T16:17:08.924Z,9.45
2023-04-11T16:21:15.682Z,10.44
2023-04-11T16:25:20.697Z,10.78
2023-04-11T16:29:22.156Z,10.49
2023-04-11T16:33:23.557Z,10.07
2023-04-11T16:37:25.104Z,11.55
2023-04-11T16:41:26.616Z,12.56
2023-04-11T16:45:28.165Z,12.09
2023-04-11T16:49:29.831Z,12.30
2023-04-11T16:53:31.256Z,11.49
2023-04-11T16:57:33.245Z,11.22
2023-04-11T17:01:34.930Z,12.05
2023-04-11T17:05:36.573Z,11.79
2023-04-11T17:09:39.089Z,12.00
2023-04-11T17:13:42.002Z,11.45
2023-04-11T17:17:44.245Z,12.33
2023-04-11T17:21:45.752Z,12.07
2023-04-11T17:25:52.183Z,10.02
2023-04-11T17:29:53.710Z,10.02
2023-04-11T17:33:55.989Z,9.84
2023-04-11T17:37:57.668Z,9.28
2023-04-11T17:41:59.332Z,9.17
2023-04-11T17:46:01.760Z,8.90
2023-04-11T17:50:04.669Z,8.97
2023-04-11T17:54:06.525Z,8.35
2023-04-11T17:58:07.974Z,8.09
2023-04-11T18:02:09.500Z,8.07
2023-04-11T18:06:11.160Z,7.74
2023-04-11T18:10:17.479Z,8.16
2023-04-11T18:14:18.966Z,7.74
2023-04-11T18:18:20.461Z,7.65
2023-04-11T18:22:21.914Z,7.74
2023-04-11T18:26:23.490Z,7.89
2023-04-11T18:30:25.008Z,7.65
2023-04-11T18:34:26.734Z,7.53
2023-04-11T18:38:28.222Z,7.51
2023-04-11T18:42:29.646Z,7.49
2023-04-11T18:46:31.313Z,7.57
2023-04-11T18:50:38.539Z,7.35
2023-04-11T18:54:40.356Z,7.21
2023-04-11T18:58:45.725Z,7.30
2023-04-11T19:02:50.513Z,7.46
2023-04-11T19:06:52.247Z,7.13
2023-04-11T19:10:55.686Z,7.03
2023-04-11T19:14:57.146Z,6.82
2023-04-11T19:18:59.096Z,6.77
2023-04-11T19:23:01.145Z,6.95
2023-04-11T19:27:02.897Z,6.68
2023-04-11T19:31:04.461Z,6.50
2023-04-11T19:35:09.961Z,6.33
2023-04-11T19:39:11.428Z,6.62
2023-04-11T19:43:12.917Z,6.55
2023-04-11T19:47:14.458Z,6.32
2023-04-11T19:51:17.243Z,6.34
2023-04-11T19:55:18.712Z,6.58
2023-04-11T19:59:20.572Z,6.22
2023-04-11T20:03:22.401Z,6.13
2023-04-11T20:07:24.043Z,6.50
2023-04-11T20:11:27.296Z,6.24
2023-04-11T20:15:30.506Z,6.50
2023-04-11T20:19:33.122Z,6.53
2023-04-11T20:23:35.681Z,6.26
2023-04-11T20:27:37.572Z,6.12
2023-04-11T20:31:39.017Z,6.08
2023-04-11T20:35:40.695Z,6.17
2023-04-11T20:39:42.193Z,6.19
2023-04-11T20:43:43.628Z,5.97
2023-04-11T20:47:50.198Z,6.12
2023-04-11T20:51:53.577Z,5.87
2023-04-11T20:55:55.134Z,5.93
2023-04-11T20:59:57.622Z,5.70
2023-04-11T21:04:03.335Z,5.40
2023-04-11T21:08:06.506Z,5.55
2023-04-11T21:12:08.014Z,5.46
2023-04-11T21:16:10.921Z,5.36
2023-04-11T21:20:22.354Z,5.37
2023-04-11T21:24:23.925Z,5.11
2023-04-11T21:28:26.099Z,4.61
2023-04-11T21:32:28.146Z,4.70
2023-04-11T21:36:29.654Z,5.02
2023-04-11T21:40:31.142Z,4.74
2023-04-11T21:44:33.070Z,4.71
2023-04-11T21:48:34.870Z,4.83
2023-04-11T21:52:36.383Z,4.80
2023-04-11T21:56:37.862Z,4.57
2023-04-11T22:00:39.415Z,4.34
2023-04-11T22:04:51.725Z,4.37
2023-04-11T22:09:03.273Z,4.35
2023-04-11T22:13:04.706Z,4.41
2023-04-11T22:17:06.128Z,4.47
2023-04-11T22:21:09.238Z,4.15
2023-04-11T22:25:11.374Z,4.34
2023-04-11T22:29:13.840Z,4.05
2023-04-11T22:33:15.435Z,4.01
2023-04-11T22:37:16.940Z,4.04
2023-04-11T22:41:18.646Z,3.69
2023-04-11T22:45:21.710Z,3.91
2023-04-11T22:49:23.228Z,3.68
2023-04-11T22:53:28.374Z,3.48
2023-04-11T22:57:29.802Z,3.32
2023-04-11T23:01:33.029Z,3.44
2023-04-11T23:05:38.118Z,3.65
2023-04-11T23:09:39.537Z,3.53
2023-04-11T23:13:41.117Z,3.21
2023-04-11T23:17:42.580Z,3.33
2023-04-11T23:21:45.013Z,3.39
2023-04-11T23:25:46.468Z,3.00
2023-04-11T23:29:51.643Z,3.39
2023-04-11T23:33:53.635Z,2.96
2023-04-11T23:37:55.153Z,3.16
2023-04-11T23:41:57.273Z,3.50
2023-04-11T23:45:58.969Z,3.55
2023-04-11T23:50:02.465Z,3.45
2023-04-11T23:54:05.024Z,3.49
2023-04-11T23:58:06.442Z,3.53
